This is the latest recevied weather packets stored in our database for station/object KG6QHD-13. If no packets are shown the sender has not sent any weather packets the latest 10 day(s).
| Time | Temp. | Humidity | Pressure | Rain* | Wind** | Luminosity | Snow |
|---|---|---|---|---|---|---|---|
| 1777884645 | 10° C | 32% | 1014.7 hPa | 0 mm | - | 0 W/m² | - |
| 1777884364 | 10.56° C | 30% | 1014.7 hPa | 0 mm | - | 0 W/m² | - |
| 1777883145 | 10° C | 32% | 1014.9 hPa | 0 mm | - | 0 W/m² | - |
| 1777881660 | 9.44° C | 34% | 1015.1 hPa | 0 mm | - | 0 W/m² | - |
| 1777880749 | 9.44° C | 34% | 1015.3 hPa | 0 mm | - | 0 W/m² | - |
| 1777877747 | 8.89° C | 36% | 1015.7 hPa | 0 mm | - | 0 W/m² | - |
| 1777877444 | 9.44° C | 35% | 1015.8 hPa | 0 mm | - | 0 W/m² | - |
| 1777876845 | 10° C | 34% | 1015.8 hPa | 0 mm | - | 0 W/m² | - |
| 1777875649 | 8.89° C | 36% | 1016 hPa | 0 mm | - | 0 W/m² | - |
| 1777873554 | 9.44° C | 36% | 1016.1 hPa | 0 mm | - | 0 W/m² | - |
| 1777872949 | 9.44° C | 36% | 1016.2 hPa | 0 mm | - | 0 W/m² | - |
| 1777872652 | 9.44° C | 36% | 1016.3 hPa | 0 mm | - | 0 W/m² | - |
| 1777872048 | 10° C | 35% | 1016.2 hPa | 0 mm | - | 0 W/m² | - |
| 1777870548 | 11.11° C | 33% | 1016.4 hPa | 0 mm | - | 0 W/m² | - |
| 1777868448 | 11.67° C | 31% | 1016.7 hPa | 0 mm | - | 0 W/m² | - |
| 1777868153 | 11.67° C | 31% | 1016.8 hPa | 0 mm | - | 0 W/m² | - |
| 1777867253 | 11.67° C | 31% | 1016.8 hPa | 0 mm | - | 0 W/m² | - |
| 1777866948 | 11.67° C | 31% | 1016.8 hPa | 0 mm | - | 0 W/m² | - |
| 1777860348 | 15° C | 22% | 1016.1 hPa | 0 mm | - | 0 W/m² | - |
| 1777859745 | 15° C | 22% | 1016.1 hPa | 0 mm | - | 0 W/m² | - |
| 1777853445 | 17.78° C | 18% | 1015.6 hPa | 0 mm | - | 81 W/m² | - |
| 1777852245 | 17.78° C | 18% | 1015.5 hPa | 0 mm | - | 169 W/m² | - |
| 1777851055 | 17.78° C | 16% | 1015.6 hPa | 0 mm | - | 223 W/m² | - |
| 1777850447 | 18.33° C | 16% | 1015.6 hPa | 0 mm | - | 221 W/m² | - |
| 1777846843 | 17.78° C | 15% | 1015.8 hPa | 0 mm | - | 315 W/m² | - |
* Rain latest hour (hover to see other rain measurements)
** Current wind speed in m/s (hover to see current wind gust speed)